createdAt,value
2019-01-09T00:00:51.722Z,99.99
2019-01-09T00:01:51.719Z,99.99
2019-01-09T00:02:51.707Z,99.99
2019-01-09T00:03:51.695Z,99.99
2019-01-09T00:04:51.728Z,99.21
2019-01-09T00:05:51.685Z,99.63
2019-01-09T00:06:51.675Z,99.05
2019-01-09T00:07:51.654Z,99.15
2019-01-09T00:08:51.643Z,99.21
2019-01-09T00:09:51.637Z,99.01
2019-01-09T00:10:51.635Z,99.32
2019-01-09T00:11:51.628Z,99.52
2019-01-09T00:12:51.619Z,98.48
2019-01-09T00:13:51.590Z,98.90
2019-01-09T00:14:51.583Z,98.69
2019-01-09T00:15:51.597Z,99.42
2019-01-09T00:16:51.565Z,99.32
2019-01-09T00:17:51.548Z,99.21
2019-01-09T00:18:51.542Z,99.26
2019-01-09T00:19:51.543Z,99.73
2019-01-09T00:20:51.535Z,99.36
2019-01-09T00:21:51.549Z,99.57
2019-01-09T00:22:51.522Z,99.26
2019-01-09T00:23:51.490Z,99.36
2019-01-09T00:24:51.490Z,99.57
2019-01-09T00:25:51.479Z,99.26
2019-01-09T00:26:53.435Z,99.36
2019-01-09T00:27:51.471Z,99.15
2019-01-09T00:28:51.434Z,99.99
2019-01-09T00:29:51.453Z,99.99
2019-01-09T00:30:51.429Z,99.99
2019-01-09T00:31:51.405Z,99.99
2019-01-09T00:32:51.415Z,99.99
2019-01-09T00:33:51.386Z,99.99
2019-01-09T00:34:51.371Z,99.99
2019-01-09T00:35:51.449Z,99.99
2019-01-09T00:36:51.359Z,99.99
2019-01-09T00:37:51.336Z,99.99
2019-01-09T00:38:51.356Z,99.99
2019-01-09T00:39:51.318Z,99.99
2019-01-09T00:40:51.320Z,99.99
2019-01-09T00:41:51.299Z,99.99
2019-01-09T00:42:51.286Z,99.77
2019-01-09T00:43:51.275Z,99.99
2019-01-09T00:44:51.309Z,99.99
2019-01-09T00:45:51.278Z,99.99
2019-01-09T00:46:51.244Z,99.62
2019-01-09T00:47:51.235Z,99.05
2019-01-09T00:48:51.225Z,98.94
2019-01-09T00:49:51.215Z,99.26
2019-01-09T00:50:51.235Z,99.46
2019-01-09T00:51:51.207Z,99.26
2019-01-09T00:52:51.192Z,99.05
2019-01-09T00:53:51.167Z,99.05
2019-01-09T00:54:51.158Z,98.74
2019-01-09T00:55:51.162Z,99.15
2019-01-09T00:56:51.353Z,98.74
2019-01-09T00:57:51.129Z,99.36
2019-01-09T00:58:51.125Z,99.26
2019-01-09T00:59:51.139Z,99.05
2019-01-09T01:00:51.120Z,98.74
2019-01-09T01:01:51.088Z,99.72
2019-01-09T01:02:51.159Z,99.26
2019-01-09T01:03:51.107Z,99.46
2019-01-09T01:04:51.052Z,99.26
2019-01-09T01:05:51.073Z,99.15
2019-01-09T01:06:51.037Z,99.26
2019-01-09T01:07:51.065Z,98.94
2019-01-09T01:08:51.027Z,99.15
2019-01-09T01:09:51.035Z,99.26
2019-01-09T01:10:51.004Z,99.15
2019-01-09T01:11:50.991Z,99.26
2019-01-09T01:12:51.007Z,99.36
2019-01-09T01:13:50.982Z,99.41
2019-01-09T01:14:50.947Z,99.26
2019-01-09T01:15:50.965Z,99.36
2019-01-09T01:16:50.930Z,99.57
2019-01-09T01:17:50.947Z,99.57
2019-01-09T01:18:50.918Z,99.67
2019-01-09T01:19:50.930Z,99.26
2019-01-09T01:20:50.911Z,99.26
2019-01-09T01:21:50.899Z,98.88
2019-01-09T01:22:50.919Z,98.94
2019-01-09T01:23:50.851Z,99.26
2019-01-09T01:24:50.843Z,99.05
2019-01-09T01:25:50.867Z,98.53
2019-01-09T01:26:50.840Z,99.26
2019-01-09T01:27:50.836Z,98.88
2019-01-09T01:28:50.808Z,99.77
2019-01-09T01:29:50.791Z,99.26
2019-01-09T01:30:50.840Z,99.99
2019-01-09T01:31:50.768Z,99.77
2019-01-09T01:32:50.772Z,99.99
2019-01-09T01:33:50.772Z,99.99
2019-01-09T01:34:50.733Z,99.99
2019-01-09T01:35:54.884Z,99.99
2019-01-09T01:36:50.730Z,99.99
2019-01-09T01:37:50.706Z,99.99
2019-01-09T01:38:50.693Z,99.99
2019-01-09T01:39:50.749Z,99.99
2019-01-09T01:40:50.705Z,99.99
2019-01-09T01:41:50.696Z,99.99
2019-01-09T01:42:50.650Z,99.99
2019-01-09T01:43:50.637Z,99.99
2019-01-09T01:44:50.627Z,99.99
2019-01-09T01:45:50.684Z,99.99
2019-01-09T01:46:50.622Z,99.99
2019-01-09T01:47:50.624Z,99.99
2019-01-09T01:48:50.592Z,99.99
2019-01-09T01:49:50.603Z,99.99
2019-01-09T01:50:50.567Z,99.99
2019-01-09T01:51:50.595Z,99.99
2019-01-09T01:52:50.545Z,99.99
2019-01-09T01:53:50.532Z,99.99
2019-01-09T01:54:50.538Z,99.99
2019-01-09T01:55:50.523Z,99.99
2019-01-09T01:56:50.595Z,99.99
2019-01-09T01:57:50.493Z,99.99
2019-01-09T01:58:50.480Z,99.99
2019-01-09T01:59:50.481Z,99.99
2019-01-09T02:00:50.461Z,99.99
2019-01-09T02:01:50.470Z,99.99
2019-01-09T02:02:50.456Z,99.99
2019-01-09T02:03:50.438Z,99.99
2019-01-09T02:04:50.454Z,99.99
2019-01-09T02:05:50.429Z,99.99
2019-01-09T02:06:50.447Z,99.99
2019-01-09T02:07:50.402Z,99.99
2019-01-09T02:08:50.378Z,99.99
2019-01-09T02:09:50.372Z,99.99
2019-01-09T02:10:50.421Z,99.99
2019-01-09T02:11:50.364Z,99.99
2019-01-09T02:12:50.333Z,99.99
2019-01-09T02:13:50.349Z,99.99
2019-01-09T02:14:50.333Z,99.99
2019-01-09T02:15:50.357Z,99.99
2019-01-09T02:16:50.293Z,99.99
2019-01-09T02:17:50.352Z,99.99
2019-01-09T02:18:50.300Z,99.99
2019-01-09T02:19:50.271Z,99.99
2019-01-09T02:20:50.272Z,99.99
2019-01-09T02:21:50.301Z,99.99
2019-01-09T02:22:50.230Z,99.99
2019-01-09T02:23:50.227Z,99.99
2019-01-09T02:24:50.247Z,99.99
2019-01-09T02:25:50.215Z,99.99
2019-01-09T02:26:50.186Z,99.99
2019-01-09T02:27:50.181Z,99.99
2019-01-09T02:28:50.173Z,99.99
2019-01-09T02:29:50.209Z,99.99
2019-01-09T02:30:50.178Z,99.99
2019-01-09T02:31:50.134Z,99.99
2019-01-09T02:32:50.144Z,99.99
2019-01-09T02:33:50.127Z,99.99
2019-01-09T02:34:50.111Z,99.99
2019-01-09T02:35:50.109Z,99.99
2019-01-09T02:36:50.161Z,99.99
2019-01-09T02:37:50.093Z,99.99
2019-01-09T02:38:50.064Z,99.99
2019-01-09T02:39:50.050Z,99.99
2019-01-09T02:40:52.000Z,99.99
2019-01-09T02:41:50.033Z,99.99
2019-01-09T02:42:50.054Z,99.99
2019-01-09T02:43:50.006Z,99.99
2019-01-09T02:44:49.996Z,99.99
2019-01-09T02:45:50.017Z,99.99
2019-01-09T02:46:49.972Z,99.99
2019-01-09T02:47:49.975Z,99.99
2019-01-09T02:48:49.955Z,99.99
2019-01-09T02:49:49.973Z,99.99
2019-01-09T02:50:49.947Z,99.99
2019-01-09T02:51:49.930Z,99.99
2019-01-09T02:52:49.927Z,99.99
2019-01-09T02:53:49.930Z,99.99
2019-01-09T02:54:49.893Z,99.99
2019-01-09T02:55:49.944Z,99.99
2019-01-09T02:56:49.869Z,99.99
2019-01-09T02:57:56.560Z,99.99
2019-01-09T02:58:50.866Z,99.99
2019-01-09T02:59:49.844Z,99.99
2019-01-09T03:00:49.885Z,99.99
2019-01-09T03:01:49.825Z,99.99
2019-01-09T03:02:49.821Z,99.99
2019-01-09T03:03:49.796Z,99.99
2019-01-09T03:04:49.784Z,99.99
2019-01-09T03:05:49.784Z,99.99
2019-01-09T03:06:49.764Z,99.99
2019-01-09T03:07:49.751Z,99.99
2019-01-09T03:08:49.761Z,99.99
2019-01-09T03:09:49.728Z,99.99
2019-01-09T03:10:49.742Z,99.99
2019-01-09T03:11:49.707Z,99.99
2019-01-09T03:12:49.703Z,99.99
2019-01-09T03:13:49.691Z,99.99
2019-01-09T03:14:49.713Z,99.99
2019-01-09T03:15:49.684Z,99.99
2019-01-09T03:16:49.663Z,99.99
2019-01-09T03:17:49.648Z,99.99
2019-01-09T03:18:49.631Z,99.99
2019-01-09T03:19:49.636Z,99.99
2019-01-09T03:20:49.631Z,99.99
2019-01-09T03:21:49.604Z,99.99
2019-01-09T03:22:49.611Z,99.99
2019-01-09T03:23:49.640Z,99.99
2019-01-09T03:24:49.573Z,99.99
2019-01-09T03:25:49.578Z,99.99
2019-01-09T03:26:49.575Z,99.99
2019-01-09T03:27:49.540Z,99.99
2019-01-09T03:28:49.547Z,99.99
2019-01-09T03:29:49.532Z,99.99
2019-01-09T03:30:49.536Z,99.99
2019-01-09T03:31:49.502Z,99.99
2019-01-09T03:32:49.554Z,99.99
2019-01-09T03:33:49.482Z,99.99
2019-01-09T03:34:49.473Z,99.99
2019-01-09T03:35:49.479Z,99.99
2019-01-09T03:36:49.466Z,99.99
2019-01-09T03:37:49.436Z,99.99
2019-01-09T03:38:49.423Z,99.99
2019-01-09T03:39:49.420Z,99.99
2019-01-09T03:40:49.443Z,99.99
2019-01-09T03:41:49.414Z,99.99
2019-01-09T03:42:49.390Z,99.99
2019-01-09T03:43:49.399Z,99.99
2019-01-09T03:44:49.356Z,99.99
2019-01-09T03:45:49.362Z,99.99
2019-01-09T03:46:49.374Z,99.99
2019-01-09T03:47:49.330Z,99.99
2019-01-09T03:48:49.317Z,99.99
2019-01-09T03:49:49.313Z,99.99
2019-01-09T03:50:49.415Z,99.99
2019-01-09T03:51:49.280Z,99.99
2019-01-09T03:52:49.273Z,99.99
2019-01-09T03:53:49.264Z,99.99
2019-01-09T03:54:49.251Z,99.99
2019-01-09T03:55:49.253Z,99.99
2019-01-09T03:56:49.234Z,99.99
2019-01-09T03:57:49.218Z,99.99
2019-01-09T03:58:49.217Z,99.99
2019-01-09T03:59:49.223Z,99.99
2019-01-09T04:00:49.238Z,99.99
2019-01-09T04:01:49.182Z,99.99
2019-01-09T04:02:49.179Z,99.99
2019-01-09T04:03:49.171Z,99.99
2019-01-09T04:04:49.155Z,99.99
2019-01-09T04:05:49.173Z,99.99
2019-01-09T04:06:49.174Z,99.99
2019-01-09T04:07:49.123Z,99.99
2019-01-09T04:08:49.127Z,99.99
2019-01-09T04:09:49.095Z,99.99
2019-01-09T04:10:49.189Z,99.54
2019-01-09T04:11:49.098Z,98.92
2019-01-09T04:12:49.135Z,99.69
2019-01-09T04:13:49.052Z,99.59
2019-01-09T04:14:49.057Z,99.99
2019-01-09T04:15:49.027Z,99.99
2019-01-09T04:16:49.055Z,99.99
2019-01-09T04:17:49.007Z,99.99
2019-01-09T04:18:49.000Z,99.99
2019-01-09T04:19:49.134Z,99.99
2019-01-09T04:20:49.003Z,99.99
2019-01-09T04:21:49.011Z,99.99
2019-01-09T04:22:48.956Z,99.99
2019-01-09T04:23:48.969Z,99.99
2019-01-09T04:24:48.942Z,99.99
2019-01-09T04:25:49.015Z,99.99
2019-01-09T04:26:48.971Z,99.99
2019-01-09T04:27:49.117Z,99.99
2019-01-09T04:28:48.901Z,99.99
2019-01-09T04:29:48.929Z,99.99
2019-01-09T04:30:48.897Z,99.99
2019-01-09T04:31:48.940Z,99.99
2019-01-09T04:32:48.857Z,99.99
2019-01-09T04:33:48.858Z,99.99
2019-01-09T04:34:48.863Z,99.99
2019-01-09T04:35:48.882Z,99.99
2019-01-09T04:36:51.648Z,99.99
2019-01-09T04:37:48.795Z,99.99
2019-01-09T04:38:48.836Z,99.99
2019-01-09T04:39:48.784Z,99.99
2019-01-09T04:40:48.777Z,99.99
2019-01-09T04:41:48.789Z,99.99
2019-01-09T04:42:48.792Z,99.99
2019-01-09T04:43:48.729Z,99.99
2019-01-09T04:44:48.722Z,99.99
2019-01-09T04:45:48.720Z,99.99
2019-01-09T04:46:48.712Z,99.99
2019-01-09T04:47:48.707Z,99.99
2019-01-09T04:48:48.909Z,99.99
2019-01-09T04:49:48.671Z,99.99
2019-01-09T04:50:48.677Z,99.99
2019-01-09T04:51:48.666Z,99.99
2019-01-09T04:52:48.639Z,99.99
2019-01-09T04:53:48.635Z,99.99
2019-01-09T04:54:48.645Z,99.99
2019-01-09T04:55:48.609Z,99.99
2019-01-09T04:56:48.615Z,99.99
2019-01-09T04:57:48.583Z,99.99
2019-01-09T04:58:48.573Z,99.99
2019-01-09T04:59:48.662Z,99.99
2019-01-09T05:00:48.559Z,99.99
2019-01-09T05:01:48.574Z,99.99
2019-01-09T05:02:48.543Z,99.99
2019-01-09T05:03:48.523Z,99.99
2019-01-09T05:04:49.449Z,99.99
2019-01-09T05:05:48.519Z,99.99
2019-01-09T05:06:48.513Z,99.99
2019-01-09T05:07:48.476Z,99.99
2019-01-09T05:08:48.496Z,99.99
2019-01-09T05:09:48.486Z,99.99
2019-01-09T05:10:48.445Z,99.99
2019-01-09T05:11:48.460Z,99.99
2019-01-09T05:12:48.422Z,99.99
2019-01-09T05:13:48.453Z,99.99
2019-01-09T05:14:48.426Z,99.99
2019-01-09T05:15:48.391Z,99.99
2019-01-09T05:16:48.438Z,99.99
2019-01-09T05:17:48.367Z,99.99
2019-01-09T05:18:48.357Z,99.99
2019-01-09T05:19:48.346Z,99.99
2019-01-09T05:20:48.337Z,99.99
2019-01-09T05:21:48.342Z,99.99
2019-01-09T05:22:48.352Z,99.99
2019-01-09T05:23:48.306Z,99.99
2019-01-09T05:24:48.327Z,99.99
2019-01-09T05:25:48.282Z,99.99
2019-01-09T05:26:48.286Z,99.99
2019-01-09T05:27:48.270Z,99.99
2019-01-09T05:28:48.263Z,99.99
2019-01-09T05:29:48.261Z,99.99
2019-01-09T05:30:48.284Z,99.99
2019-01-09T05:31:48.275Z,99.99
2019-01-09T05:32:48.209Z,99.99
2019-01-09T05:33:48.210Z,99.99
2019-01-09T05:34:48.206Z,99.99
2019-01-09T05:35:48.255Z,99.99
2019-01-09T05:36:48.187Z,99.99
2019-01-09T05:37:48.241Z,99.99
2019-01-09T05:38:48.200Z,99.99
2019-01-09T05:39:48.150Z,99.99
2019-01-09T05:40:48.199Z,99.99
2019-01-09T05:41:48.220Z,99.99
2019-01-09T05:42:48.126Z,99.99
2019-01-09T05:43:48.185Z,99.99
2019-01-09T05:44:48.845Z,99.99
2019-01-09T05:45:48.088Z,99.99
2019-01-09T05:46:48.107Z,99.99
2019-01-09T05:47:48.107Z,99.99
2019-01-09T05:48:48.047Z,99.99
2019-01-09T05:49:48.070Z,99.99
2019-01-09T05:50:48.028Z,99.99
2019-01-09T05:51:48.236Z,99.99
2019-01-09T05:52:48.019Z,99.99
2019-01-09T05:53:48.032Z,99.99
2019-01-09T05:54:47.985Z,99.99
2019-01-09T05:55:47.968Z,99.99
2019-01-09T05:56:47.969Z,99.99
2019-01-09T05:57:47.971Z,99.99
2019-01-09T05:58:47.939Z,99.99
2019-01-09T05:59:47.967Z,99.99
2019-01-09T06:00:47.922Z,99.99
2019-01-09T06:01:47.904Z,99.99
2019-01-09T06:02:47.914Z,99.99
2019-01-09T06:03:47.888Z,99.99
2019-01-09T06:04:47.876Z,99.99
2019-01-09T06:05:47.931Z,99.99
2019-01-09T06:06:47.852Z,99.99
2019-01-09T06:07:47.858Z,99.99
2019-01-09T06:08:47.831Z,99.99
2019-01-09T06:09:47.819Z,99.99
2019-01-09T06:10:47.807Z,99.99
2019-01-09T06:11:47.875Z,99.99
2019-01-09T06:12:47.806Z,99.99
2019-01-09T06:13:47.776Z,99.99
2019-01-09T06:14:47.772Z,99.99
2019-01-09T06:15:47.759Z,99.99
2019-01-09T06:16:47.751Z,99.99
2019-01-09T06:17:47.772Z,99.99
2019-01-09T06:18:47.723Z,99.99
2019-01-09T06:19:48.307Z,99.99
2019-01-09T06:20:47.715Z,99.99
2019-01-09T06:21:47.753Z,99.99
2019-01-09T06:22:47.724Z,99.99
2019-01-09T06:23:47.719Z,99.99
2019-01-09T06:24:47.704Z,99.99
2019-01-09T06:25:47.733Z,99.99
2019-01-09T06:26:47.644Z,99.99
2019-01-09T06:27:47.641Z,99.99
2019-01-09T06:28:47.665Z,99.99
2019-01-09T06:29:47.612Z,99.99
2019-01-09T06:30:47.599Z,99.99
2019-01-09T06:31:47.597Z,99.99
2019-01-09T06:32:47.602Z,99.99
2019-01-09T06:33:47.626Z,99.99
2019-01-09T06:34:47.757Z,99.99
2019-01-09T06:35:47.608Z,99.99
2019-01-09T06:36:47.578Z,99.99
2019-01-09T06:37:47.641Z,99.99
2019-01-09T06:38:47.555Z,99.99
2019-01-09T06:39:47.502Z,99.99
2019-01-09T06:40:47.533Z,99.99
2019-01-09T06:41:47.483Z,99.99
2019-01-09T06:42:47.493Z,99.99
2019-01-09T06:43:47.469Z,99.99
2019-01-09T06:44:47.458Z,99.99
2019-01-09T06:45:47.448Z,99.99
2019-01-09T06:46:47.463Z,99.99
2019-01-09T06:47:47.435Z,99.99
2019-01-09T06:48:47.408Z,99.99
2019-01-09T06:49:47.400Z,99.99
2019-01-09T06:50:47.383Z,99.99
2019-01-09T06:51:47.376Z,99.99
2019-01-09T06:52:47.410Z,99.99
2019-01-09T06:53:47.505Z,99.99
2019-01-09T06:54:47.403Z,99.99
2019-01-09T06:55:47.574Z,99.99
2019-01-09T06:56:47.328Z,99.99
2019-01-09T06:57:47.331Z,99.99
2019-01-09T06:58:47.332Z,99.99
2019-01-09T06:59:47.292Z,99.99
2019-01-09T07:00:47.383Z,99.99
2019-01-09T07:01:47.268Z,99.99
2019-01-09T07:02:47.271Z,99.99
2019-01-09T07:03:47.251Z,99.99
2019-01-09T07:04:47.276Z,99.99
2019-01-09T07:05:47.230Z,99.99
2019-01-09T07:06:47.221Z,99.99
2019-01-09T07:07:47.224Z,99.99
2019-01-09T07:08:47.197Z,99.99
2019-01-09T07:09:47.189Z,99.99
2019-01-09T07:10:47.222Z,99.99
2019-01-09T07:11:47.165Z,99.99
2019-01-09T07:12:47.208Z,99.99
2019-01-09T07:13:47.142Z,99.99
2019-01-09T07:14:47.135Z,99.99
2019-01-09T07:15:47.123Z,99.99
2019-01-09T07:16:47.385Z,99.99
2019-01-09T07:17:47.099Z,99.99
2019-01-09T07:18:47.106Z,99.99
2019-01-09T07:19:47.078Z,99.99
2019-01-09T07:20:47.069Z,99.99
2019-01-09T07:21:47.058Z,99.99
2019-01-09T07:22:47.090Z,99.99
2019-01-09T07:23:47.052Z,99.99
2019-01-09T07:24:47.027Z,99.99
2019-01-09T07:25:47.020Z,99.99
2019-01-09T07:26:47.006Z,99.99
2019-01-09T07:27:46.996Z,99.99
2019-01-09T07:28:47.032Z,99.99
2019-01-09T07:29:46.973Z,99.99
2019-01-09T07:30:46.966Z,99.99
2019-01-09T07:31:46.953Z,99.99
2019-01-09T07:32:46.944Z,99.99
2019-01-09T07:33:46.950Z,99.99
2019-01-09T07:34:46.929Z,99.99
2019-01-09T07:35:46.911Z,99.99
2019-01-09T07:36:46.901Z,99.99
2019-01-09T07:37:47.831Z,99.99
2019-01-09T07:38:46.895Z,99.99
2019-01-09T07:39:46.866Z,99.99
2019-01-09T07:40:46.885Z,99.99
2019-01-09T07:41:46.867Z,99.99
2019-01-09T07:42:46.840Z,99.99
2019-01-09T07:43:46.844Z,99.99
2019-01-09T07:44:46.821Z,99.99
2019-01-09T07:45:46.805Z,99.99
2019-01-09T07:46:46.794Z,99.99
2019-01-09T07:47:46.792Z,99.99
2019-01-09T07:48:46.797Z,99.99
2019-01-09T07:49:46.793Z,99.99
2019-01-09T07:50:46.750Z,99.99
2019-01-09T07:51:46.747Z,99.99
2019-01-09T07:52:46.729Z,99.99
2019-01-09T07:53:46.735Z,99.99
2019-01-09T07:54:46.713Z,99.99
2019-01-09T07:55:46.715Z,99.99
2019-01-09T07:56:46.703Z,99.99
2019-01-09T07:57:46.686Z,99.99
2019-01-09T07:58:47.018Z,99.99
2019-01-09T07:59:46.672Z,99.99
2019-01-09T08:00:46.709Z,99.99
2019-01-09T08:01:46.652Z,99.99
2019-01-09T08:02:46.636Z,99.99
2019-01-09T08:03:46.630Z,99.99
2019-01-09T08:04:46.676Z,99.99
2019-01-09T08:05:46.601Z,99.99
2019-01-09T08:06:46.596Z,99.99
2019-01-09T08:07:53.806Z,99.99
2019-01-09T08:08:47.578Z,99.99
2019-01-09T08:09:46.583Z,99.99
2019-01-09T08:10:46.548Z,99.99
2019-01-09T08:11:46.691Z,99.99
2019-01-09T08:12:46.531Z,99.99
2019-01-09T08:13:46.548Z,99.99
2019-01-09T08:14:46.537Z,99.99
2019-01-09T08:15:46.497Z,99.99
2019-01-09T08:16:46.482Z,99.99
2019-01-09T08:17:46.490Z,99.99
2019-01-09T08:18:48.353Z,99.99
2019-01-09T08:19:46.475Z,99.99
2019-01-09T08:20:46.453Z,99.99
2019-01-09T08:21:46.426Z,99.99
2019-01-09T08:22:46.441Z,99.99
2019-01-09T08:23:46.420Z,99.99
2019-01-09T08:24:46.418Z,99.99
2019-01-09T08:25:46.441Z,99.99
2019-01-09T08:26:46.413Z,99.99
2019-01-09T08:27:46.384Z,99.99
2019-01-09T08:28:46.375Z,99.99
2019-01-09T08:29:46.355Z,99.99
2019-01-09T08:30:46.345Z,99.99
2019-01-09T08:31:46.323Z,99.99
2019-01-09T08:32:46.313Z,99.99
2019-01-09T08:33:46.327Z,99.99
2019-01-09T08:34:46.300Z,99.99
2019-01-09T08:35:46.288Z,99.99
2019-01-09T08:36:46.283Z,99.99
2019-01-09T08:37:46.253Z,99.99
2019-01-09T08:38:46.264Z,99.99
2019-01-09T08:39:46.243Z,99.99
2019-01-09T08:40:46.233Z,99.99
2019-01-09T08:41:46.214Z,99.99
2019-01-09T08:42:46.205Z,99.99
2019-01-09T08:43:46.209Z,99.99
2019-01-09T08:44:46.187Z,99.99
2019-01-09T08:45:46.178Z,99.99
2019-01-09T08:46:46.210Z,99.99
2019-01-09T08:47:46.161Z,99.99
2019-01-09T08:48:46.218Z,99.99
2019-01-09T08:49:46.149Z,99.99
2019-01-09T08:50:46.157Z,99.99
2019-01-09T08:51:46.139Z,99.99
2019-01-09T08:52:46.119Z,99.99
2019-01-09T08:53:46.137Z,99.99
2019-01-09T08:54:46.102Z,99.99
2019-01-09T08:55:46.070Z,99.99
2019-01-09T08:56:46.106Z,99.99
2019-01-09T08:57:46.053Z,99.99
2019-01-09T08:58:46.076Z,99.99
2019-01-09T08:59:46.049Z,99.99
2019-01-09T09:00:46.020Z,99.99
2019-01-09T09:01:46.112Z,99.99
2019-01-09T09:02:46.106Z,99.99
2019-01-09T09:03:46.005Z,99.99
2019-01-09T09:04:46.000Z,99.99
2019-01-09T09:05:45.977Z,99.99
2019-01-09T09:06:46.017Z,99.99
2019-01-09T09:07:45.943Z,99.99
2019-01-09T09:08:45.933Z,99.99
2019-01-09T09:09:45.954Z,99.99
2019-01-09T09:10:45.940Z,99.99
2019-01-09T09:11:45.920Z,99.99
2019-01-09T09:12:45.903Z,99.99
2019-01-09T09:13:45.901Z,99.99
2019-01-09T09:14:45.886Z,99.99
2019-01-09T09:15:45.861Z,99.99
2019-01-09T09:16:45.851Z,99.99
2019-01-09T09:17:45.838Z,99.99
2019-01-09T09:18:45.883Z,99.99
2019-01-09T09:19:45.879Z,99.99
2019-01-09T09:20:45.818Z,99.99
2019-01-09T09:21:45.832Z,99.99
2019-01-09T09:22:45.798Z,99.99
2019-01-09T09:23:45.770Z,99.99
2019-01-09T09:24:45.781Z,99.99
2019-01-09T09:25:45.761Z,99.99
2019-01-09T09:26:45.765Z,99.99
2019-01-09T09:27:45.735Z,99.99
2019-01-09T09:28:45.740Z,99.99
2019-01-09T09:29:45.764Z,99.99
2019-01-09T09:30:45.701Z,99.99
2019-01-09T09:31:45.699Z,99.99
2019-01-09T09:32:45.672Z,99.99
2019-01-09T09:33:45.690Z,99.99
2019-01-09T09:34:45.675Z,99.99
2019-01-09T09:35:45.640Z,99.99
2019-01-09T09:36:45.647Z,99.99
2019-01-09T09:37:45.635Z,99.99
2019-01-09T09:38:45.625Z,99.99
2019-01-09T09:39:45.614Z,99.99
2019-01-09T09:40:45.620Z,99.99
2019-01-09T09:41:45.576Z,99.99
2019-01-09T09:42:45.565Z,99.99
2019-01-09T09:43:45.576Z,99.99
2019-01-09T09:44:45.563Z,99.99
2019-01-09T09:45:45.537Z,99.99
2019-01-09T09:46:45.525Z,99.99
2019-01-09T09:47:45.514Z,99.99
2019-01-09T09:48:45.534Z,99.99
2019-01-09T09:49:45.541Z,99.99
2019-01-09T09:50:45.481Z,99.99
2019-01-09T09:51:45.474Z,99.99
2019-01-09T09:52:45.469Z,99.96
2019-01-09T09:53:45.459Z,99.99
2019-01-09T09:54:45.454Z,99.99
2019-01-09T09:55:45.438Z,99.99
2019-01-09T09:56:45.430Z,99.99
2019-01-09T09:57:45.412Z,99.99
2019-01-09T09:58:45.396Z,99.65
2019-01-09T09:59:45.401Z,99.44
2019-01-09T10:00:45.371Z,99.13
2019-01-09T10:01:46.277Z,99.44
2019-01-09T10:02:45.398Z,99.65
2019-01-09T10:03:45.343Z,99.99
2019-01-09T10:04:45.489Z,99.99
2019-01-09T10:05:45.332Z,99.99
2019-01-09T10:06:45.309Z,99.96
2019-01-09T10:07:45.313Z,99.80
2019-01-09T10:08:45.303Z,99.99
2019-01-09T10:09:45.296Z,99.99
2019-01-09T10:10:45.266Z,99.99
2019-01-09T10:11:45.258Z,99.99
2019-01-09T10:12:45.249Z,99.99
2019-01-09T10:13:45.237Z,99.96
2019-01-09T10:14:45.250Z,99.99
2019-01-09T10:15:45.217Z,99.99
2019-01-09T10:16:45.213Z,99.99
2019-01-09T10:17:45.191Z,99.91
2019-01-09T10:18:45.181Z,99.99
2019-01-09T10:19:45.185Z,99.99
2019-01-09T10:20:45.173Z,99.91
2019-01-09T10:21:45.149Z,99.81
2019-01-09T10:22:45.140Z,99.99
2019-01-09T10:23:45.129Z,99.98
2019-01-09T10:24:45.142Z,99.81
2019-01-09T10:25:45.401Z,99.99
2019-01-09T10:26:45.111Z,99.99
2019-01-09T10:27:45.085Z,99.98
2019-01-09T10:28:45.080Z,99.99
2019-01-09T10:29:45.081Z,99.99
2019-01-09T10:30:45.061Z,99.50
2019-01-09T10:31:45.780Z,99.55
2019-01-09T10:32:45.059Z,99.98
2019-01-09T10:33:45.020Z,99.45
2019-01-09T10:34:45.299Z,99.98
2019-01-09T10:35:45.000Z,99.55
2019-01-09T10:36:44.990Z,99.66
2019-01-09T10:37:44.978Z,99.35
2019-01-09T10:38:45.004Z,99.14
2019-01-09T10:39:44.971Z,99.14
2019-01-09T10:40:44.952Z,99.35
2019-01-09T10:41:44.947Z,99.35
2019-01-09T10:42:44.926Z,99.35
2019-01-09T10:43:44.925Z,99.35
2019-01-09T10:44:44.951Z,99.55
2019-01-09T10:45:44.913Z,99.55
2019-01-09T10:46:45.180Z,99.24
2019-01-09T10:47:44.897Z,99.87
2019-01-09T10:48:44.882Z,99.55
2019-01-09T10:49:44.909Z,99.14
2019-01-09T10:50:44.865Z,98.83
2019-01-09T10:51:44.839Z,99.24
2019-01-09T10:52:44.839Z,99.04
2019-01-09T10:53:44.827Z,98.83
2019-01-09T10:54:44.801Z,99.91
2019-01-09T10:55:44.810Z,99.29
2019-01-09T10:56:44.802Z,99.29
2019-01-09T10:57:44.769Z,99.81
2019-01-09T10:58:44.761Z,99.14
2019-01-09T10:59:44.752Z,98.83
2019-01-09T11:00:44.758Z,99.04
2019-01-09T11:01:44.733Z,99.60
2019-01-09T11:02:44.744Z,99.55
2019-01-09T11:03:44.716Z,99.35
2019-01-09T11:04:44.706Z,99.40
2019-01-09T11:05:44.714Z,99.08
2019-01-09T11:06:44.680Z,98.66
2019-01-09T11:07:44.704Z,99.18
2019-01-09T11:08:47.047Z,98.77
2019-01-09T11:09:44.670Z,98.87
2019-01-09T11:10:44.653Z,98.56
2019-01-09T11:11:44.624Z,98.72
2019-01-09T11:12:44.615Z,97.89
2019-01-09T11:13:44.646Z,97.47
2019-01-09T11:14:44.592Z,97.10
2019-01-09T11:15:44.599Z,96.85
2019-01-09T11:16:44.620Z,97.06
2019-01-09T11:17:44.577Z,97.31
2019-01-09T11:18:44.549Z,97.10
2019-01-09T11:19:44.564Z,97.20
2019-01-09T11:20:44.581Z,97.10
2019-01-09T11:21:44.521Z,96.89
2019-01-09T11:22:44.513Z,97.20
2019-01-09T11:23:44.508Z,96.06
2019-01-09T11:24:44.527Z,96.26
2019-01-09T11:25:44.494Z,96.01
2019-01-09T11:26:44.468Z,96.22
2019-01-09T11:27:44.470Z,95.95
2019-01-09T11:28:44.463Z,96.33
2019-01-09T11:29:44.523Z,94.98
2019-01-09T11:30:44.438Z,94.87
2019-01-09T11:31:44.433Z,95.18
2019-01-09T11:32:44.404Z,95.50
2019-01-09T11:33:44.449Z,95.91
2019-01-09T11:34:44.381Z,96.01
2019-01-09T11:35:44.392Z,94.98
2019-01-09T11:36:44.403Z,94.98
2019-01-09T11:37:44.364Z,95.18
2019-01-09T11:38:44.341Z,95.08
2019-01-09T11:39:44.344Z,94.04
2019-01-09T11:40:44.340Z,93.62
2019-01-09T11:41:44.306Z,93.10
2019-01-09T11:42:44.308Z,93.20
2019-01-09T11:43:44.289Z,92.16
2019-01-09T11:44:44.276Z,91.85
2019-01-09T11:45:44.360Z,92.43
2019-01-09T11:46:44.252Z,92.37
2019-01-09T11:47:44.302Z,92.79
2019-01-09T11:48:44.239Z,92.33
2019-01-09T11:49:44.254Z,92.54
2019-01-09T11:50:44.279Z,92.12
2019-01-09T11:51:44.222Z,91.64
2019-01-09T11:52:44.200Z,91.12
2019-01-09T11:53:44.229Z,91.85
2019-01-09T11:54:44.171Z,91.64
2019-01-09T11:55:44.181Z,91.64
2019-01-09T11:56:44.158Z,91.22
2019-01-09T11:57:44.178Z,90.81
2019-01-09T11:58:44.135Z,91.96
2019-01-09T11:59:44.125Z,91.75
2019-01-09T12:00:44.133Z,90.81
2019-01-09T12:01:44.120Z,91.81
2019-01-09T12:02:44.088Z,92.02
2019-01-09T12:03:44.091Z,92.12
2019-01-09T12:04:44.067Z,91.50
2019-01-09T12:05:44.070Z,91.81
2019-01-09T12:06:44.043Z,91.60
2019-01-09T12:07:44.074Z,91.18
2019-01-09T12:08:44.042Z,92.22
2019-01-09T12:09:44.014Z,92.22
2019-01-09T12:10:44.028Z,91.60
2019-01-09T12:11:44.021Z,90.04
2019-01-09T12:12:43.988Z,90.00
2019-01-09T12:13:43.978Z,89.94
2019-01-09T12:14:43.967Z,89.73
2019-01-09T12:15:44.019Z,89.31
2019-01-09T12:16:43.950Z,89.73
2019-01-09T12:17:43.942Z,90.14
2019-01-09T12:18:43.922Z,90.45
2019-01-09T12:19:43.929Z,90.45
2019-01-09T12:20:43.895Z,89.62
2019-01-09T12:21:43.916Z,90.25
2019-01-09T12:22:43.902Z,89.83
2019-01-09T12:23:43.878Z,90.25
2019-01-09T12:24:43.854Z,89.73
2019-01-09T12:25:43.895Z,90.25
2019-01-09T12:26:43.861Z,90.20
2019-01-09T12:27:43.832Z,90.04
2019-01-09T12:28:43.840Z,89.94
2019-01-09T12:29:43.801Z,91.08
2019-01-09T12:30:43.804Z,90.97
2019-01-09T12:31:43.817Z,90.56
2019-01-09T12:32:43.770Z,90.87
2019-01-09T12:33:43.767Z,90.25
2019-01-09T12:34:43.757Z,89.94
2019-01-09T12:35:43.768Z,89.83
2019-01-09T12:36:43.744Z,88.27
2019-01-09T12:37:43.726Z,87.85
2019-01-09T12:38:43.709Z,88.10
2019-01-09T12:39:43.698Z,86.50
2019-01-09T12:40:43.695Z,86.40
2019-01-09T12:41:43.692Z,86.71
2019-01-09T12:42:43.676Z,85.77
2019-01-09T12:43:43.679Z,87.33
2019-01-09T12:44:43.669Z,86.43
2019-01-09T12:45:43.634Z,87.27
2019-01-09T12:46:43.639Z,87.12
2019-01-09T12:47:43.614Z,86.85
2019-01-09T12:48:43.607Z,87.06
2019-01-09T12:49:43.603Z,87.89
2019-01-09T12:50:43.599Z,87.89
2019-01-09T12:51:43.585Z,87.89
2019-01-09T12:52:43.563Z,88.20